McLeansville, NC (27301)

6:29 AM EDT on August 31, 2015 (GMT -0400)
Osceola/NE Guilford | | Change Station
CLOSE
Current Station
Personal Weather Station
Location: Browns Summit, NC
Elevation: 721 ft
Nearby Weather Stations

Elev 721 ft 36.20 °N, 79.61 °W | Updated 38 minutes ago

Overcast
Overcast
66.8 °F
Feels Like 66.8 °F
N
0.0
Wind Variable Wind from North
Gusts 0.0 mph

Today
High -- | Low -- °F
--% Chance of Precip.
Yesterday
High -- | Low -- °F
Precip. -- in
6:49 AM 7:48 PM
Waning Gibbous, 96% visible
Pressure 30.10 in
Visibility 4.0 miles
Clouds Mostly Cloudy 2600 ft
Mostly Cloudy 5500 ft
Overcast 10000 ft
Dew Point 66 °F
Humidity 96%
Rainfall 0.02 in
Snow Depth Not available.
UV 0 out of 12
Pollen 8.30 out of 12
Air Quality Not available.
Flu Activity Not available.
METAR KBUY 310954Z AUTO 00000KT 4SM RA BR BKN026 BKN055 OVC100 19/19 A3011 RMK AO2 SLP191 P0009 T01940194
Pressure 30.10 in
Visibility 4.0 miles
Clouds Mostly Cloudy 2600 ft
Mostly Cloudy 5500 ft
Overcast 10000 ft
Dew Point 66 °F
Humidity 96%
Rainfall 0.02 in
Snow Depth Not available.
UV 0 out of 12
Pollen 8.30 out of 12
Air Quality Not available.
Flu Activity Not available.
METAR KBUY 310954Z AUTO 00000KT 4SM RA BR BKN026 BKN055 OVC100 19/19 A3011 RMK AO2 SLP191 P0009 T01940194

10-Day Weather Forecast

×

Almanac

Astronomy

Aug. 31, 2015 Rise Set
Actual Time
Civil Twilight
Nautical Twilight
Astronomical Twilight
Moon
Length of Visible Light
Length of Day
Tomorrow will be .
, % of the Moon is Illuminated

Today's Extremes

State Highs State Lows

Community

WunderPhotos

Upload Photos

1,851,229 photos uploaded!

WunderBlogs® & News

Nearby

Air Quality

  Air Quality AQ Index Pollutant
Not available.

Snow Depth

Station Depth Elevation

Earthquake Activity

City Distance Mag. Time & Date
Minimum magnitude displayed is 2.5.

Coastal Water Temperatures

Place Temperature

Stations

Nearby Weather Stations

Station Location Temp. Windchill Dew Point Humidity Wind Precip. Elev Updated Type